Aegean Dream — SVCM3 — position and weather

sailwx.info

Track history (hours):
 
Tides and Currents Weather Stations Pressure Air Temp Water Temp Dewpoint Dewpoint Depression Visibility Wind Speed Wind Dir Waves Ship Positions

Aegean Dream

Last reported at 2018-Jul-21 19:00 UTC. Time now 2018-Jul-21 19:14 UTC.
Position N 26°14' W 079°22'.

Length 274 m; draft 9.2 m.

Type: Ship (hazmat cat A). MMSI: 241463000.

Date/timePositionNaut miles runAvg speedWind from/ knotsBaromVisibWave heightAir tempDewpointWater temp
2018-Jul-21 19:00N 26°14' W 079°22'510.4
2018-Jul-21 18:30N 26°19' W 079°21'5810.9
2018-Jul-21 13:13N 27°17' W 079°19'1010.1
2018-Jul-21 12:15N 27°27' W 079°16'510.4
2018-Jul-21 11:47N 27°29' W 079°12'  
2018-Jul-18 00:12N 38°46' W 075°02'212.8
2018-Jul-18 00:00N 38°48' W 075°04'510.4
2018-Jul-17 23:30N 38°53' W 075°05'713.3
2018-Jul-17 23:00N 38°60' W 075°08'713.0
2018-Jul-17 22:30N 39°06' W 075°12'612.7
2018-Jul-17 22:00N 39°11' W 075°16'713.7
2018-Jul-17 21:30N 39°17' W 075°21'713.4
2018-Jul-17 21:01N 39°22' W 075°27'612.6
2018-Jul-17 20:30N 39°26' W 075°32'510.8
2018-Jul-17 20:00N 39°32' W 075°33'510.7
2018-Jul-17 19:30N 39°37' W 075°35'510.0
2018-Jul-17 19:00N 39°41' W 075°31'3 6.6
2018-Jul-17 18:30N 39°44' W 075°30'4 8.3
2018-Jul-17 18:00N 39°47' W 075°27'3 5.7
2018-Jul-17 17:30N 39°49' W 075°24'3 6.5
2018-Jul-17 17:00N 39°51' W 075°20'4 7.6
2018-Jul-17 16:30N 39°51' W 075°15'2 3.5
2018-Jul-17 15:59N 39°52' W 075°13'0 0.0
2018-Jul-17 15:29N 39°52' W 075°13'0 0.0
2018-Jul-17 14:59N 39°52' W 075°13'0 0.0
2018-Jul-17 14:29N 39°52' W 075°13'0 0.0
2018-Jul-17 13:59N 39°52' W 075°13'0 0.0
2018-Jul-17 13:29N 39°52' W 075°13'0 0.0
2018-Jul-17 12:59N 39°52' W 075°13'0 0.0
2018-Jul-17 12:29N 39°52' W 075°13'0 0.0
2018-Jul-17 11:59N 39°52' W 075°13'0 0.0
2018-Jul-17 11:29N 39°52' W 075°13'0 0.0
2018-Jul-17 10:56N 39°52' W 075°13'0 0.0
2018-Jul-17 10:29N 39°52' W 075°13'0 0.0
2018-Jul-17 09:59N 39°52' W 075°13'0 0.0
2018-Jul-17 09:29N 39°52' W 075°13'0 0.0
2018-Jul-17 08:59N 39°52' W 075°13'0 0.0
2018-Jul-17 08:29N 39°52' W 075°13'0 0.0
2018-Jul-17 07:59N 39°52' W 075°13'0 0.0
2018-Jul-17 07:29N 39°52' W 075°13'0 0.0
2018-Jul-17 06:59N 39°52' W 075°13'0 0.0
2018-Jul-17 06:29N 39°52' W 075°13'0 0.0
2018-Jul-17 05:59N 39°52' W 075°13'0 0.0
2018-Jul-17 05:29N 39°52' W 075°13'0 0.0
2018-Jul-17 04:59N 39°52' W 075°13'0 0.0
2018-Jul-17 04:29N 39°52' W 075°13'0 0.0
2018-Jul-17 03:59N 39°52' W 075°13'0 0.0
2018-Jul-17 03:29N 39°52' W 075°13'0 0.0
2018-Jul-17 02:59N 39°52' W 075°13'0 0.0
2018-Jul-17 02:29N 39°52' W 075°13'0 0.0
2018-Jul-17 01:59N 39°52' W 075°13'0 0.0
2018-Jul-17 01:29N 39°52' W 075°13'0 0.0
2018-Jul-17 00:59N 39°52' W 075°13'0 0.0
2018-Jul-17 00:29N 39°52' W 075°13'0 0.0
2018-Jul-16 23:29N 39°52' W 075°13'0 0.0
2018-Jul-16 22:59N 39°52' W 075°13'0 0.0
2018-Jul-16 22:29N 39°52' W 075°13'0 0.0
2018-Jul-16 21:59N 39°52' W 075°13'0 0.0
2018-Jul-16 21:26N 39°52' W 075°13'0 0.0
2018-Jul-16 20:59N 39°52' W 075°13'0 0.0
2018-Jul-16 20:29N 39°52' W 075°13'0 0.0
2018-Jul-16 19:59N 39°52' W 075°13'0 0.0
2018-Jul-16 19:29N 39°52' W 075°13'0 0.0
2018-Jul-16 18:59N 39°52' W 075°13'0 0.0
2018-Jul-16 18:29N 39°52' W 075°13'0 0.0
2018-Jul-16 17:59N 39°52' W 075°13'0 0.0
2018-Jul-16 17:29N 39°52' W 075°13'0 0.0
2018-Jul-16 16:59N 39°52' W 075°13'0 0.0
2018-Jul-16 16:29N 39°52' W 075°13'0 0.0
2018-Jul-16 15:59N 39°52' W 075°13'0 0.0
2018-Jul-16 15:29N 39°52' W 075°13'0 0.0
2018-Jul-16 14:59N 39°52' W 075°13'0 0.0
2018-Jul-16 14:29N 39°52' W 075°13'0 0.0
2018-Jul-16 13:59N 39°52' W 075°13'0 0.0
2018-Jul-16 13:29N 39°52' W 075°13'0 0.0
2018-Jul-16 12:59N 39°52' W 075°13'0 0.0
2018-Jul-16 12:26N 39°52' W 075°13'0 0.0
2018-Jul-16 11:59N 39°52' W 075°13'0 0.0
2018-Jul-16 11:29N 39°52' W 075°13'0 0.0
2018-Jul-16 10:59N 39°52' W 075°13'0 0.0
2018-Jul-16 10:29N 39°52' W 075°13'0 0.0
2018-Jul-16 09:59N 39°52' W 075°13'0 0.0
2018-Jul-16 09:29N 39°52' W 075°13'0 0.0
2018-Jul-16 08:59N 39°52' W 075°13'0 0.0
2018-Jul-16 08:29N 39°52' W 075°13'0 0.0
2018-Jul-16 07:59N 39°52' W 075°13'0 0.0
2018-Jul-16 07:26N 39°52' W 075°13'0 0.0
2018-Jul-16 07:00N 39°52' W 075°13'0 0.2
2018-Jul-16 06:30N 39°52' W 075°13'2 3.4
2018-Jul-16 06:00N 39°51' W 075°15'4 7.1
2018-Jul-16 05:30N 39°51' W 075°20'4 7.8
2018-Jul-16 05:00N 39°49' W 075°24'4 7.7
2018-Jul-16 04:30N 39°47' W 075°28'5 9.5
2018-Jul-16 04:00N 39°42' W 075°31'510.6
2018-Jul-16 03:30N 39°38' W 075°34'510.7
2018-Jul-16 03:00N 39°33' W 075°33'611.1
2018-Jul-16 02:30N 39°27' W 075°33'612.0
2018-Jul-16 02:00N 39°23' W 075°28'611.6
2018-Jul-16 01:30N 39°18' W 075°23'611.8
2018-Jul-16 01:00N 39°14' W 075°18'612.0
2018-Jul-16 00:30N 39°09' W 075°14'611.2
2018-Jul-16 00:00N 39°04' W 075°11'612.1
2018-Jul-15 23:30N 38°58' W 075°07'510.2
2018-Jul-15 23:00N 38°53' W 075°06'5 9.9
2018-Jul-15 22:30N 38°56' W 075°11'1 2.0
2018-Jul-15 22:00N 38°57' W 075°11'0 0.0
2018-Jul-15 21:28N 38°57' W 075°11'0 0.0
2018-Jul-15 20:58N 38°57' W 075°11'0 0.0
2018-Jul-15 20:22N 38°57' W 075°11'0 0.0
2018-Jul-15 19:58N 38°57' W 075°11'0 0.0
2018-Jul-15 19:28N 38°57' W 075°11'0 0.0
2018-Jul-15 18:58N 38°57' W 075°11'0 0.0
2018-Jul-15 18:28N 38°57' W 075°11'0 0.0
2018-Jul-15 17:58N 38°57' W 075°11'0 0.4
2018-Jul-15 17:28N 38°58' W 075°11'0 0.1
2018-Jul-15 15:28N 38°58' W 075°11'0 0.0
2018-Jul-15 14:58N 38°58' W 075°11'0 0.0
2018-Jul-15 14:25N 38°58' W 075°11'0 0.0
2018-Jul-15 13:55N 38°58' W 075°11'0 0.0
2018-Jul-15 13:28N 38°58' W 075°11'0 0.0
2018-Jul-15 12:58N 38°58' W 075°11'0 0.0
2018-Jul-15 12:28N 38°58' W 075°11'0 0.2
2018-Jul-15 11:55N 38°58' W 075°11'0 0.6
2018-Jul-15 11:28N 38°58' W 075°11'0 0.0
2018-Jul-15 10:58N 38°57' W 075°11'0 0.0
2018-Jul-15 10:28N 38°57' W 075°11'0 0.0
2018-Jul-15 09:52N 38°57' W 075°11'0 0.0
2018-Jul-15 09:28N 38°57' W 075°11'0 0.0
2018-Jul-15 08:58N 38°57' W 075°11'0 0.0
2018-Jul-15 08:25N 38°57' W 075°11'0 0.0
2018-Jul-15 07:58N 38°57' W 075°11'0 0.0
2018-Jul-15 07:28N 38°57' W 075°11'0 0.0
2018-Jul-15 06:58N 38°57' W 075°11'0 0.0
2018-Jul-15 06:28N 38°57' W 075°11'0 0.1
2018-Jul-15 05:58N 38°58' W 075°11'0 0.1
2018-Jul-15 05:28N 38°58' W 075°11'0 0.1
2018-Jul-15 04:58N 38°58' W 075°11'0 0.3
2018-Jul-15 04:28N 38°58' W 075°11'0 0.1
2018-Jul-15 03:49N 38°58' W 075°11'0 0.0
2018-Jul-15 03:28N 38°58' W 075°11'0 0.0
2018-Jul-15 02:58N 38°58' W 075°11'0 0.0
2018-Jul-15 02:22N 38°58' W 075°11'0 0.0
2018-Jul-15 01:58N 38°58' W 075°11'0 0.0
2018-Jul-15 00:55N 38°58' W 075°11'0 0.0
2018-Jul-15 00:28N 38°58' W 075°11'0 0.1
2018-Jul-14 23:58N 38°58' W 075°11'0 0.0
2018-Jul-14 23:25N 38°58' W 075°11'0 0.1
2018-Jul-14 22:46N 38°58' W 075°11'0 0.6
2018-Jul-14 22:28N 38°58' W 075°11'0 0.4
2018-Jul-14 21:58N 38°57' W 075°11'0 0.1
2018-Jul-14 21:28N 38°57' W 075°11'0 0.0
2018-Jul-14 20:58N 38°57' W 075°11'0 0.0
2018-Jul-14 20:28N 38°57' W 075°11'0 0.0
2018-Jul-14 19:58N 38°57' W 075°11'0 0.1
2018-Jul-14 19:28N 38°57' W 075°11'0 0.0
2018-Jul-14 18:58N 38°57' W 075°11'0 0.1
2018-Jul-14 18:28N 38°57' W 075°11'0 0.0
2018-Jul-14 17:58N 38°57' W 075°11'0 0.0
2018-Jul-14 17:28N 38°57' W 075°11'0 0.2
2018-Jul-14 16:58N 38°58' W 075°11'0 0.4
2018-Jul-14 16:25N 38°58' W 075°11'0 0.1
2018-Jul-14 15:58N 38°58' W 075°11'0 0.0
2018-Jul-14 15:28N 38°58' W 075°11'0 0.0
2018-Jul-14 14:58N 38°58' W 075°11'0 0.0
2018-Jul-14 14:25N 38°58' W 075°11'0 0.0
2018-Jul-14 13:28N 38°58' W 075°11'0 0.0
2018-Jul-14 12:55N 38°58' W 075°11'0 0.0
2018-Jul-14 12:28N 38°58' W 075°11'0 0.0
2018-Jul-14 11:58N 38°58' W 075°11'0 0.1
2018-Jul-14 11:28N 38°58' W 075°11'0 0.3
2018-Jul-14 10:58N 38°58' W 075°11'0 0.3
2018-Jul-14 10:28N 38°57' W 075°11'0 0.1
2018-Jul-14 09:58N 38°57' W 075°11'0 0.1
2018-Jul-14 09:28N 38°57' W 075°11'0 0.0
2018-Jul-14 08:58N 38°57' W 075°11'0 0.0
2018-Jul-14 08:28N 38°57' W 075°11'0 0.0
2018-Jul-14 07:58N 38°57' W 075°11'0 0.1
2018-Jul-14 07:28N 38°57' W 075°11'0 0.0
2018-Jul-14 06:58N 38°57' W 075°11'0 0.0
2018-Jul-14 06:28N 38°57' W 075°11'0 0.0
2018-Jul-14 05:58N 38°57' W 075°11'0 0.0
2018-Jul-14 05:28N 38°57' W 075°11'0 0.0
2018-Jul-14 04:58N 38°57' W 075°11'0 0.1
2018-Jul-14 04:28N 38°57' W 075°11'0 0.4
2018-Jul-14 03:58N 38°58' W 075°11'0 0.2
2018-Jul-14 03:28N 38°58' W 075°11'0 0.1
2018-Jul-14 02:58N 38°58' W 075°11'0 0.0
2018-Jul-14 02:28N 38°58' W 075°11'0 0.0
2018-Jul-14 01:58N 38°58' W 075°11'0 0.0
2018-Jul-14 01:28N 38°58' W 075°11'0 0.0
2018-Jul-14 00:58N 38°58' W 075°11'0 0.1
2018-Jul-14 00:28N 38°58' W 075°11'0 0.0
2018-Jul-13 22:58N 38°58' W 075°11'0 0.1
2018-Jul-13 21:46N 38°58' W 075°11'0 0.3
2018-Jul-13 21:28N 38°58' W 075°11'0 0.3
2018-Jul-13 20:58N 38°57' W 075°11'0 0.1
2018-Jul-13 20:25N 38°57' W 075°11'0 0.1
2018-Jul-13 19:58N 38°57' W 075°11'0 0.0
2018-Jul-13 19:04N 38°57' W 075°11'0 0.1
2018-Jul-13 18:52N 38°57' W 075°11'0 0.0
2018-Jul-13 18:25N 38°57' W 075°11'0 0.0
2018-Jul-13 17:58N 38°57' W 075°11'0 0.1
2018-Jul-13 17:28N 38°57' W 075°11'0 0.0
2018-Jul-13 16:58N 38°57' W 075°11'0 0.0
2018-Jul-13 16:28N 38°57' W 075°11'0 0.3
2018-Jul-13 15:58N 38°58' W 075°11'0 0.3
2018-Jul-13 15:22N 38°58' W 075°11'0 0.1
2018-Jul-13 14:19N 38°58' W 075°11'0 0.0
2018-Jul-13 13:19N 38°58' W 075°11'0 0.1
2018-Jul-13 12:52N 38°58' W 075°11'0 0.0
2018-Jul-13 12:28N 38°58' W 075°11'0 0.0
2018-Jul-13 11:58N 38°58' W 075°11'0 0.1
2018-Jul-13 11:28N 38°58' W 075°11'0 0.0
2018-Jul-13 10:58N 38°58' W 075°11'0 0.0
2018-Jul-13 10:28N 38°58' W 075°11'0 0.0
2018-Jul-13 09:58N 38°58' W 075°11'0 0.3
2018-Jul-13 09:28N 38°58' W 075°11'0 0.2
2018-Jul-13 08:58N 38°57' W 075°11'0 0.2
2018-Jul-13 08:28N 38°57' W 075°11'0 0.0
2018-Jul-13 07:58N 38°57' W 075°11'0 0.0
2018-Jul-13 07:28N 38°57' W 075°11'0 0.0
2018-Jul-13 06:58N 38°57' W 075°11'0 0.0
2018-Jul-13 06:28N 38°57' W 075°11'0 0.0
2018-Jul-13 05:58N 38°57' W 075°11'0 0.0
2018-Jul-13 05:28N 38°57' W 075°11'0 0.1
2018-Jul-13 04:58N 38°57' W 075°11'0 0.0
2018-Jul-13 04:28N 38°57' W 075°11'0 0.0
2018-Jul-13 03:58N 38°57' W 075°11'0 0.2
2018-Jul-13 03:28N 38°58' W 075°11'0 0.5
2018-Jul-13 02:58N 38°58' W 075°11'0 0.1
2018-Jul-13 02:28N 38°58' W 075°11'0 0.0
2018-Jul-13 01:58N 38°58' W 075°11'0 0.0
2018-Jul-13 01:28N 38°58' W 075°11'0 0.0
2018-Jul-13 00:52N 38°58' W 075°11'0 0.0
2018-Jul-13 00:28N 38°58' W 075°11'0 0.0
2018-Jul-12 22:19N 38°58' W 075°11'0 0.1
2018-Jul-12 20:19N 38°58' W 075°11'0 0.4
2018-Jul-12 19:55N 38°57' W 075°11'0 0.2
2018-Jul-12 19:25N 38°57' W 075°11'0 0.0
2018-Jul-12 18:58N 38°57' W 075°11'0 0.0
2018-Jul-12 18:28N 38°57' W 075°11'0 0.0
2018-Jul-12 16:52N 38°57' W 075°11'0 0.0
2018-Jul-12 16:28N 38°57' W 075°11'0 0.1
2018-Jul-12 15:58N 38°57' W 075°11'0 0.1
2018-Jul-12 15:25N 38°57' W 075°11'0 0.5
2018-Jul-12 14:58N 38°58' W 075°11'0 0.1
2018-Jul-12 13:58N 38°58' W 075°11'0 0.0
2018-Jul-12 12:10N 38°58' W 075°11'0 0.0
2018-Jul-12 11:46N 38°58' W 075°11'0 0.0
2018-Jul-12 11:25N 38°58' W 075°11'0 0.1
2018-Jul-12 10:58N 38°58' W 075°11'0 0.0
2018-Jul-12 08:58N 38°58' W 075°11'0 0.4
2018-Jul-12 08:28N 38°57' W 075°11'0 0.2
2018-Jul-12 07:58N 38°57' W 075°11'0 0.1
2018-Jul-12 07:28N 38°57' W 075°11'0 0.0
2018-Jul-12 06:58N 38°57' W 075°11'0 0.1
2018-Jul-12 06:28N 38°57' W 075°11'0 0.0
2018-Jul-12 05:58N 38°57' W 075°11'0 0.0
2018-Jul-12 05:22N 38°57' W 075°11'0 0.0
2018-Jul-12 04:58N 38°57' W 075°11'0 0.0
2018-Jul-12 04:28N 38°57' W 075°11'0 0.1
2018-Jul-12 03:58N 38°57' W 075°11'0 0.0
2018-Jul-12 03:25N 38°57' W 075°11'0 0.1
2018-Jul-12 02:55N 38°57' W 075°11'0 0.5
2018-Jul-12 02:28N 38°58' W 075°11'0 0.2
2018-Jul-12 01:52N 38°58' W 075°11'0 0.1
2018-Jul-12 01:28N 38°58' W 075°11'0 0.1
2018-Jul-12 00:58N 38°58' W 075°11'0 0.0
2018-Jul-12 00:28N 38°58' W 075°11'0 0.0
2018-Jul-11 23:49N 38°58' W 075°11'0 0.0
2018-Jul-11 23:28N 38°58' W 075°11'0 0.0
2018-Jul-11 22:55N 38°58' W 075°11'0 0.0
2018-Jul-11 22:28N 38°58' W 075°11'0 0.0
2018-Jul-11 21:37N 38°58' W 075°11'0 0.0
2018-Jul-11 20:01N 38°58' W 075°11'0 0.4
2018-Jul-11 19:52N 38°58' W 075°11'0 0.5
2018-Jul-11 19:28N 38°57' W 075°11'  
Track history (hours):
 
Tides and Currents Weather Stations Pressure Air Temp Water Temp Dewpoint Dewpoint Depression Visibility Wind Speed Wind Dir Waves Ship Positions

Aegean Dream

Last reported at 2018-Jul-21 19:00 UTC. Time now 2018-Jul-21 19:14 UTC.
Position N 26°14' W 079°22'.

Length 274 m; draft 9.2 m.

Type: Ship (hazmat cat A). MMSI: 241463000.

Date/timePositionNaut miles runAvg speedWind from/ knotsBaromVisibWave heightAir tempDewpointWater temp
2018-Jul-21 19:00N 26°14' W 079°22'510.4
2018-Jul-21 18:30N 26°19' W 079°21'5810.9
2018-Jul-21 13:13N 27°17' W 079°19'1010.1
2018-Jul-21 12:15N 27°27' W 079°16'510.4
2018-Jul-21 11:47N 27°29' W 079°12'  
2018-Jul-18 00:12N 38°46' W 075°02'212.8
2018-Jul-18 00:00N 38°48' W 075°04'510.4
2018-Jul-17 23:30N 38°53' W 075°05'713.3
2018-Jul-17 23:00N 38°60' W 075°08'713.0
2018-Jul-17 22:30N 39°06' W 075°12'612.7
2018-Jul-17 22:00N 39°11' W 075°16'713.7
2018-Jul-17 21:30N 39°17' W 075°21'713.4
2018-Jul-17 21:01N 39°22' W 075°27'612.6
2018-Jul-17 20:30N 39°26' W 075°32'510.8
2018-Jul-17 20:00N 39°32' W 075°33'510.7
2018-Jul-17 19:30N 39°37' W 075°35'510.0
2018-Jul-17 19:00N 39°41' W 075°31'3 6.6
2018-Jul-17 18:30N 39°44' W 075°30'4 8.3
2018-Jul-17 18:00N 39°47' W 075°27'3 5.7
2018-Jul-17 17:30N 39°49' W 075°24'3 6.5
2018-Jul-17 17:00N 39°51' W 075°20'4 7.6
2018-Jul-17 16:30N 39°51' W 075°15'2 3.5
2018-Jul-17 15:59N 39°52' W 075°13'0 0.0
2018-Jul-17 15:29N 39°52' W 075°13'0 0.0
2018-Jul-17 14:59N 39°52' W 075°13'0 0.0
2018-Jul-17 14:29N 39°52' W 075°13'0 0.0
2018-Jul-17 13:59N 39°52' W 075°13'0 0.0
2018-Jul-17 13:29N 39°52' W 075°13'0 0.0
2018-Jul-17 12:59N 39°52' W 075°13'0 0.0
2018-Jul-17 12:29N 39°52' W 075°13'0 0.0
2018-Jul-17 11:59N 39°52' W 075°13'0 0.0
2018-Jul-17 11:29N 39°52' W 075°13'0 0.0
2018-Jul-17 10:56N 39°52' W 075°13'0 0.0
2018-Jul-17 10:29N 39°52' W 075°13'0 0.0
2018-Jul-17 09:59N 39°52' W 075°13'0 0.0
2018-Jul-17 09:29N 39°52' W 075°13'0 0.0
2018-Jul-17 08:59N 39°52' W 075°13'0 0.0
2018-Jul-17 08:29N 39°52' W 075°13'0 0.0
2018-Jul-17 07:59N 39°52' W 075°13'0 0.0
2018-Jul-17 07:29N 39°52' W 075°13'0 0.0
2018-Jul-17 06:59N 39°52' W 075°13'0 0.0
2018-Jul-17 06:29N 39°52' W 075°13'0 0.0
2018-Jul-17 05:59N 39°52' W 075°13'0 0.0
2018-Jul-17 05:29N 39°52' W 075°13'0 0.0
2018-Jul-17 04:59N 39°52' W 075°13'0 0.0
2018-Jul-17 04:29N 39°52' W 075°13'0 0.0
2018-Jul-17 03:59N 39°52' W 075°13'0 0.0
2018-Jul-17 03:29N 39°52' W 075°13'0 0.0
2018-Jul-17 02:59N 39°52' W 075°13'0 0.0
2018-Jul-17 02:29N 39°52' W 075°13'0 0.0
2018-Jul-17 01:59N 39°52' W 075°13'0 0.0
2018-Jul-17 01:29N 39°52' W 075°13'0 0.0
2018-Jul-17 00:59N 39°52' W 075°13'0 0.0
2018-Jul-17 00:29N 39°52' W 075°13'0 0.0
2018-Jul-16 23:29N 39°52' W 075°13'0 0.0
2018-Jul-16 22:59N 39°52' W 075°13'0 0.0
2018-Jul-16 22:29N 39°52' W 075°13'0 0.0
2018-Jul-16 21:59N 39°52' W 075°13'0 0.0
2018-Jul-16 21:26N 39°52' W 075°13'0 0.0
2018-Jul-16 20:59N 39°52' W 075°13'0 0.0
2018-Jul-16 20:29N 39°52' W 075°13'0 0.0
2018-Jul-16 19:59N 39°52' W 075°13'0 0.0
2018-Jul-16 19:29N 39°52' W 075°13'0 0.0
2018-Jul-16 18:59N 39°52' W 075°13'0 0.0
2018-Jul-16 18:29N 39°52' W 075°13'0 0.0
2018-Jul-16 17:59N 39°52' W 075°13'0 0.0
2018-Jul-16 17:29N 39°52' W 075°13'0 0.0
2018-Jul-16 16:59N 39°52' W 075°13'0 0.0
2018-Jul-16 16:29N 39°52' W 075°13'0 0.0
2018-Jul-16 15:59N 39°52' W 075°13'0 0.0
2018-Jul-16 15:29N 39°52' W 075°13'0 0.0
2018-Jul-16 14:59N 39°52' W 075°13'0 0.0
2018-Jul-16 14:29N 39°52' W 075°13'0 0.0
2018-Jul-16 13:59N 39°52' W 075°13'0 0.0
2018-Jul-16 13:29N 39°52' W 075°13'0 0.0
2018-Jul-16 12:59N 39°52' W 075°13'0 0.0
2018-Jul-16 12:26N 39°52' W 075°13'0 0.0
2018-Jul-16 11:59N 39°52' W 075°13'0 0.0
2018-Jul-16 11:29N 39°52' W 075°13'0 0.0
2018-Jul-16 10:59N 39°52' W 075°13'0 0.0
2018-Jul-16 10:29N 39°52' W 075°13'0 0.0
2018-Jul-16 09:59N 39°52' W 075°13'0 0.0
2018-Jul-16 09:29N 39°52' W 075°13'0 0.0
2018-Jul-16 08:59N 39°52' W 075°13'0 0.0
2018-Jul-16 08:29N 39°52' W 075°13'0 0.0
2018-Jul-16 07:59N 39°52' W 075°13'0 0.0
2018-Jul-16 07:26N 39°52' W 075°13'0 0.0
2018-Jul-16 07:00N 39°52' W 075°13'0 0.2
2018-Jul-16 06:30N 39°52' W 075°13'2 3.4
2018-Jul-16 06:00N 39°51' W 075°15'4 7.1
2018-Jul-16 05:30N 39°51' W 075°20'4 7.8
2018-Jul-16 05:00N 39°49' W 075°24'4 7.7
2018-Jul-16 04:30N 39°47' W 075°28'5 9.5
2018-Jul-16 04:00N 39°42' W 075°31'510.6
2018-Jul-16 03:30N 39°38' W 075°34'510.7
2018-Jul-16 03:00N 39°33' W 075°33'611.1
2018-Jul-16 02:30N 39°27' W 075°33'612.0
2018-Jul-16 02:00N 39°23' W 075°28'611.6
2018-Jul-16 01:30N 39°18' W 075°23'611.8
2018-Jul-16 01:00N 39°14' W 075°18'612.0
2018-Jul-16 00:30N 39°09' W 075°14'611.2
2018-Jul-16 00:00N 39°04' W 075°11'612.1
2018-Jul-15 23:30N 38°58' W 075°07'510.2
2018-Jul-15 23:00N 38°53' W 075°06'5 9.9
2018-Jul-15 22:30N 38°56' W 075°11'1 2.0
2018-Jul-15 22:00N 38°57' W 075°11'0 0.0
2018-Jul-15 21:28N 38°57' W 075°11'0 0.0
2018-Jul-15 20:58N 38°57' W 075°11'0 0.0
2018-Jul-15 20:22N 38°57' W 075°11'0 0.0
2018-Jul-15 19:58N 38°57' W 075°11'0 0.0
2018-Jul-15 19:28N 38°57' W 075°11'0 0.0
2018-Jul-15 18:58N 38°57' W 075°11'0 0.0
2018-Jul-15 18:28N 38°57' W 075°11'0 0.0
2018-Jul-15 17:58N 38°57' W 075°11'0 0.4
2018-Jul-15 17:28N 38°58' W 075°11'0 0.1
2018-Jul-15 15:28N 38°58' W 075°11'0 0.0
2018-Jul-15 14:58N 38°58' W 075°11'0 0.0
2018-Jul-15 14:25N 38°58' W 075°11'0 0.0
2018-Jul-15 13:55N 38°58' W 075°11'0 0.0
2018-Jul-15 13:28N 38°58' W 075°11'0 0.0
2018-Jul-15 12:58N 38°58' W 075°11'0 0.0
2018-Jul-15 12:28N 38°58' W 075°11'0 0.2
2018-Jul-15 11:55N 38°58' W 075°11'0 0.6
2018-Jul-15 11:28N 38°58' W 075°11'0 0.0
2018-Jul-15 10:58N 38°57' W 075°11'0 0.0
2018-Jul-15 10:28N 38°57' W 075°11'0 0.0
2018-Jul-15 09:52N 38°57' W 075°11'0 0.0
2018-Jul-15 09:28N 38°57' W 075°11'0 0.0
2018-Jul-15 08:58N 38°57' W 075°11'0 0.0
2018-Jul-15 08:25N 38°57' W 075°11'0 0.0
2018-Jul-15 07:58N 38°57' W 075°11'0 0.0
2018-Jul-15 07:28N 38°57' W 075°11'0 0.0
2018-Jul-15 06:58N 38°57' W 075°11'0 0.0
2018-Jul-15 06:28N 38°57' W 075°11'0 0.1
2018-Jul-15 05:58N 38°58' W 075°11'0 0.1
2018-Jul-15 05:28N 38°58' W 075°11'0 0.1
2018-Jul-15 04:58N 38°58' W 075°11'0 0.3
2018-Jul-15 04:28N 38°58' W 075°11'0 0.1
2018-Jul-15 03:49N 38°58' W 075°11'0 0.0
2018-Jul-15 03:28N 38°58' W 075°11'0 0.0
2018-Jul-15 02:58N 38°58' W 075°11'0 0.0
2018-Jul-15 02:22N 38°58' W 075°11'0 0.0
2018-Jul-15 01:58N 38°58' W 075°11'0 0.0
2018-Jul-15 00:55N 38°58' W 075°11'0 0.0
2018-Jul-15 00:28N 38°58' W 075°11'0 0.1
2018-Jul-14 23:58N 38°58' W 075°11'0 0.0
2018-Jul-14 23:25N 38°58' W 075°11'0 0.1
2018-Jul-14 22:46N 38°58' W 075°11'0 0.6
2018-Jul-14 22:28N 38°58' W 075°11'0 0.4
2018-Jul-14 21:58N 38°57' W 075°11'0 0.1
2018-Jul-14 21:28N 38°57' W 075°11'0 0.0
2018-Jul-14 20:58N 38°57' W 075°11'0 0.0
2018-Jul-14 20:28N 38°57' W 075°11'0 0.0
2018-Jul-14 19:58N 38°57' W 075°11'0 0.1
2018-Jul-14 19:28N 38°57' W 075°11'0 0.0
2018-Jul-14 18:58N 38°57' W 075°11'0 0.1
2018-Jul-14 18:28N 38°57' W 075°11'0 0.0
2018-Jul-14 17:58N 38°57' W 075°11'0 0.0
2018-Jul-14 17:28N 38°57' W 075°11'0 0.2
2018-Jul-14 16:58N 38°58' W 075°11'0 0.4
2018-Jul-14 16:25N 38°58' W 075°11'0 0.1
2018-Jul-14 15:58N 38°58' W 075°11'0 0.0
2018-Jul-14 15:28N 38°58' W 075°11'0 0.0
2018-Jul-14 14:58N 38°58' W 075°11'0 0.0
2018-Jul-14 14:25N 38°58' W 075°11'0 0.0
2018-Jul-14 13:28N 38°58' W 075°11'0 0.0
2018-Jul-14 12:55N 38°58' W 075°11'0 0.0
2018-Jul-14 12:28N 38°58' W 075°11'0 0.0
2018-Jul-14 11:58N 38°58' W 075°11'0 0.1
2018-Jul-14 11:28N 38°58' W 075°11'0 0.3
2018-Jul-14 10:58N 38°58' W 075°11'0 0.3
2018-Jul-14 10:28N 38°57' W 075°11'0 0.1
2018-Jul-14 09:58N 38°57' W 075°11'0 0.1
2018-Jul-14 09:28N 38°57' W 075°11'0 0.0
2018-Jul-14 08:58N 38°57' W 075°11'0 0.0
2018-Jul-14 08:28N 38°57' W 075°11'0 0.0
2018-Jul-14 07:58N 38°57' W 075°11'0 0.1
2018-Jul-14 07:28N 38°57' W 075°11'0 0.0
2018-Jul-14 06:58N 38°57' W 075°11'0 0.0
2018-Jul-14 06:28N 38°57' W 075°11'0 0.0
2018-Jul-14 05:58N 38°57' W 075°11'0 0.0
2018-Jul-14 05:28N 38°57' W 075°11'0 0.0
2018-Jul-14 04:58N 38°57' W 075°11'0 0.1
2018-Jul-14 04:28N 38°57' W 075°11'0 0.4
2018-Jul-14 03:58N 38°58' W 075°11'0 0.2
2018-Jul-14 03:28N 38°58' W 075°11'0 0.1
2018-Jul-14 02:58N 38°58' W 075°11'0 0.0
2018-Jul-14 02:28N 38°58' W 075°11'0 0.0
2018-Jul-14 01:58N 38°58' W 075°11'0 0.0
2018-Jul-14 01:28N 38°58' W 075°11'0 0.0
2018-Jul-14 00:58N 38°58' W 075°11'0 0.1
2018-Jul-14 00:28N 38°58' W 075°11'0 0.0
2018-Jul-13 22:58N 38°58' W 075°11'0 0.1
2018-Jul-13 21:46N 38°58' W 075°11'0 0.3
2018-Jul-13 21:28N 38°58' W 075°11'0 0.3
2018-Jul-13 20:58N 38°57' W 075°11'0 0.1
2018-Jul-13 20:25N 38°57' W 075°11'0 0.1
2018-Jul-13 19:58N 38°57' W 075°11'0 0.0
2018-Jul-13 19:04N 38°57' W 075°11'0 0.1
2018-Jul-13 18:52N 38°57' W 075°11'0 0.0
2018-Jul-13 18:25N 38°57' W 075°11'0 0.0
2018-Jul-13 17:58N 38°57' W 075°11'0 0.1
2018-Jul-13 17:28N 38°57' W 075°11'0 0.0
2018-Jul-13 16:58N 38°57' W 075°11'0 0.0
2018-Jul-13 16:28N 38°57' W 075°11'0 0.3
2018-Jul-13 15:58N 38°58' W 075°11'0 0.3
2018-Jul-13 15:22N 38°58' W 075°11'0 0.1
2018-Jul-13 14:19N 38°58' W 075°11'0 0.0
2018-Jul-13 13:19N 38°58' W 075°11'0 0.1
2018-Jul-13 12:52N 38°58' W 075°11'0 0.0
2018-Jul-13 12:28N 38°58' W 075°11'0 0.0
2018-Jul-13 11:58N 38°58' W 075°11'0 0.1
2018-Jul-13 11:28N 38°58' W 075°11'0 0.0
2018-Jul-13 10:58N 38°58' W 075°11'0 0.0
2018-Jul-13 10:28N 38°58' W 075°11'0 0.0
2018-Jul-13 09:58N 38°58' W 075°11'0 0.3
2018-Jul-13 09:28N 38°58' W 075°11'0 0.2
2018-Jul-13 08:58N 38°57' W 075°11'0 0.2
2018-Jul-13 08:28N 38°57' W 075°11'0 0.0
2018-Jul-13 07:58N 38°57' W 075°11'0 0.0
2018-Jul-13 07:28N 38°57' W 075°11'0 0.0
2018-Jul-13 06:58N 38°57' W 075°11'0 0.0
2018-Jul-13 06:28N 38°57' W 075°11'0 0.0
2018-Jul-13 05:58N 38°57' W 075°11'0 0.0
2018-Jul-13 05:28N 38°57' W 075°11'0 0.1
2018-Jul-13 04:58N 38°57' W 075°11'0 0.0
2018-Jul-13 04:28N 38°57' W 075°11'0 0.0
2018-Jul-13 03:58N 38°57' W 075°11'0 0.2
2018-Jul-13 03:28N 38°58' W 075°11'0 0.5
2018-Jul-13 02:58N 38°58' W 075°11'0 0.1
2018-Jul-13 02:28N 38°58' W 075°11'0 0.0
2018-Jul-13 01:58N 38°58' W 075°11'0 0.0
2018-Jul-13 01:28N 38°58' W 075°11'0 0.0
2018-Jul-13 00:52N 38°58' W 075°11'0 0.0
2018-Jul-13 00:28N 38°58' W 075°11'0 0.0
2018-Jul-12 22:19N 38°58' W 075°11'0 0.1
2018-Jul-12 20:19N 38°58' W 075°11'0 0.4
2018-Jul-12 19:55N 38°57' W 075°11'0 0.2
2018-Jul-12 19:25N 38°57' W 075°11'0 0.0
2018-Jul-12 18:58N 38°57' W 075°11'0 0.0
2018-Jul-12 18:28N 38°57' W 075°11'0 0.0
2018-Jul-12 16:52N 38°57' W 075°11'0 0.0
2018-Jul-12 16:28N 38°57' W 075°11'0 0.1
2018-Jul-12 15:58N 38°57' W 075°11'0 0.1
2018-Jul-12 15:25N 38°57' W 075°11'0 0.5
2018-Jul-12 14:58N 38°58' W 075°11'0 0.1
2018-Jul-12 13:58N 38°58' W 075°11'0 0.0
2018-Jul-12 12:10N 38°58' W 075°11'0 0.0
2018-Jul-12 11:46N 38°58' W 075°11'0 0.0
2018-Jul-12 11:25N 38°58' W 075°11'0 0.1
2018-Jul-12 10:58N 38°58' W 075°11'0 0.0
2018-Jul-12 08:58N 38°58' W 075°11'0 0.4
2018-Jul-12 08:28N 38°57' W 075°11'0 0.2
2018-Jul-12 07:58N 38°57' W 075°11'0 0.1
2018-Jul-12 07:28N 38°57' W 075°11'0 0.0
2018-Jul-12 06:58N 38°57' W 075°11'0 0.1
2018-Jul-12 06:28N 38°57' W 075°11'0 0.0
2018-Jul-12 05:58N 38°57' W 075°11'0 0.0
2018-Jul-12 05:22N 38°57' W 075°11'0 0.0
2018-Jul-12 04:58N 38°57' W 075°11'0 0.0
2018-Jul-12 04:28N 38°57' W 075°11'0 0.1
2018-Jul-12 03:58N 38°57' W 075°11'0 0.0
2018-Jul-12 03:25N 38°57' W 075°11'0 0.1
2018-Jul-12 02:55N 38°57' W 075°11'0 0.5
2018-Jul-12 02:28N 38°58' W 075°11'0 0.2
2018-Jul-12 01:52N 38°58' W 075°11'0 0.1
2018-Jul-12 01:28N 38°58' W 075°11'0 0.1
2018-Jul-12 00:58N 38°58' W 075°11'0 0.0
2018-Jul-12 00:28N 38°58' W 075°11'0 0.0
2018-Jul-11 23:49N 38°58' W 075°11'0 0.0
2018-Jul-11 23:28N 38°58' W 075°11'0 0.0
2018-Jul-11 22:55N 38°58' W 075°11'0 0.0
2018-Jul-11 22:28N 38°58' W 075°11'0 0.0
2018-Jul-11 21:37N 38°58' W 075°11'0 0.0
2018-Jul-11 20:01N 38°58' W 075°11'0 0.4
2018-Jul-11 19:52N 38°58' W 075°11'0 0.5
2018-Jul-11 19:28N 38°57' W 075°11'  

Dump ship's entire track history